Time;durP1;ratioP1;P1;durP2;ratioP2;P2;SDS_P1;SDS_P2;PMS_P1;PMS_P2;Temp;Humidity;BMP_temperature;BMP_pressure;BME280_temperature;BME280_humidity;BME280_pressure;Samples;Min_cycle;Max_cycle;Signal;HPM_P1;HPM_P2
2021/07/29 00:00:25;;;;;;;;;;;;;;;23.12;54.25;95675.25;1037132;28;1379;-71
2021/07/29 00:00:56;;;;;;;;;;;;;;;23.12;54.50;95677.91;1045071;28;1972;-71
2021/07/29 00:01:26;;;;;;;;;;;;;;;23.12;54.23;95669.97;1037295;28;1219;-70
2021/07/29 00:01:56;;;;;;;;;;;;;;;23.13;54.39;95674.16;1040783;28;1077;-70
2021/07/29 00:02:27;;;;;;;;;;;;;;;23.12;54.12;95677.91;1041118;28;800;-71
2021/07/29 00:02:57;;;;;;;;;;;;;;;23.12;54.17;95678.66;1036492;28;1256;-70
2021/07/29 00:03:27;;;;;;;;;;;;;;;23.13;54.33;95674.97;1045287;28;983;-71
2021/07/29 00:03:58;;;;;;;;;;;;;;;23.13;54.29;95671.53;1040063;28;2217;-70
2021/07/29 00:04:28;;;;;;;;;;;;;;;23.13;54.07;95674.97;1039561;28;2070;-70
2021/07/29 00:04:59;;;;;;;;;;;;;;;23.14;54.26;95678.41;1046765;28;1127;-71
2021/07/29 00:05:30;;;;;;;;;;;;;;;23.14;54.58;95675.75;1049351;28;960;-70
2021/07/29 00:06:00;;;;;;;;;;;;;;;23.13;54.46;95682.09;1042618;28;1314;-71
2021/07/29 00:06:32;;;;;;;;;;;;;;;23.14;54.33;95671.22;1037167;28;1039;-71
2021/07/29 00:07:02;;;;;;;;;;;;;;;23.14;54.44;95675.75;1039464;28;1101;-70
2021/07/29 00:07:33;;;;;;;;;;;;;;;23.15;54.31;95672.81;1044885;28;1276;-70
2021/07/29 00:08:03;;;;;;;;;;;;;;;23.14;54.26;95675.75;1043605;28;2236;-69
2021/07/29 00:08:34;;;;;;;;;;;;;;;23.14;54.52;95675.75;1036334;28;1757;-70
2021/07/29 00:09:04;;;;;;;;;;;;;;;23.13;54.44;95674.97;1047706;28;938;-70
2021/07/29 00:09:35;;;;;;;;;;;;;;;23.13;54.59;95668.88;1044472;28;2074;-70
2021/07/29 00:10:05;;;;;;;;;;;;;;;23.13;54.50;95674.97;1042732;28;1576;-70
2021/07/29 00:10:36;;;;;;;;;;;;;;;23.13;54.39;95674.16;1045011;28;823;-70
2021/07/29 00:11:06;;;;;;;;;;;;;;;23.14;54.46;95667.81;1050948;28;1139;-70
2021/07/29 00:11:36;;;;;;;;;;;;;;;23.14;54.39;95675.75;1044122;28;1152;-70
2021/07/29 00:12:07;;;;;;;;;;;;;;;23.14;54.16;95670.47;1043762;28;1317;-70
2021/07/29 00:12:37;;;;;;;;;;;;;;;23.14;54.17;95673.09;1044995;28;1158;-70
2021/07/29 00:13:08;;;;;;;;;;;;;;;23.14;54.40;95670.47;1040642;28;1386;-70
2021/07/29 00:13:38;;;;;;;;;;;;;;;23.14;54.53;95673.09;1042572;28;1249;-70
2021/07/29 00:14:09;;;;;;;;;;;;;;;23.15;54.37;95678.09;1045242;28;1284;-70
2021/07/29 00:14:45;;;;;;;;;;;;;;;23.15;54.27;95672.03;1038245;28;1151;-71
2021/07/29 00:15:16;;;;;;;;;;;;;;;23.14;54.30;95670.47;1043518;28;2244;-71
2021/07/29 00:15:46;;;;;;;;;;;;;;;23.15;54.41;95670.16;1044434;28;1261;-70
2021/07/29 00:16:17;;;;;;;;;;;;;;;23.14;54.18;95665.94;1045357;28;855;-70
2021/07/29 00:16:50;;;;;;;;;;;;;;;23.14;54.41;95665.19;1042788;28;1252;-71
2021/07/29 00:17:29;;;;;;;;;;;;;;;23.14;54.38;95667.81;1048646;28;1374;-70
2021/07/29 00:19:19;;;;;;;;;;;;;;;23.13;54.53;95663.59;1039819;28;1045;-71
2021/07/29 00:19:49;;;;;;;;;;;;;;;23.13;54.37;95669.69;1042632;28;1246;-71
2021/07/29 00:20:25;;;;;;;;;;;;;;;23.13;54.45;95674.97;1042075;28;2324;-71
2021/07/29 00:20:56;;;;;;;;;;;;;;;23.13;54.55;95669.69;1046203;28;1906;-71
2021/07/29 00:21:26;;;;;;;;;;;;;;;23.14;54.62;95673.09;1042143;28;1229;-71
2021/07/29 00:21:57;;;;;;;;;;;;;;;23.15;54.51;95674.66;1047334;28;1139;-71
2021/07/29 00:22:28;;;;;;;;;;;;;;;23.13;54.25;95674.97;1044440;28;1578;-71
2021/07/29 00:22:59;;;;;;;;;;;;;;;23.14;54.52;95673.09;1044505;28;1222;-71
2021/07/29 00:23:29;;;;;;;;;;;;;;;23.14;54.28;95673.88;1044033;28;1178;-71
2021/07/29 00:24:00;;;;;;;;;;;;;;;23.15;54.50;95677.31;1044907;28;1299;-71
2021/07/29 00:24:30;;;;;;;;;;;;;;;23.15;54.39;95672.03;1041552;28;1712;-70
2021/07/29 00:25:01;;;;;;;;;;;;;;;23.14;54.54;95670.47;1044678;28;1914;-71
2021/07/29 00:25:31;;;;;;;;;;;;;;;23.14;54.60;95671.22;1044885;28;1170;-70
2021/07/29 00:26:02;;;;;;;;;;;;;;;23.15;54.27;95670.16;1047036;28;1205;-69
2021/07/29 00:26:33;;;;;;;;;;;;;;;23.15;54.57;95669.38;1047457;28;1547;-70
2021/07/29 00:27:04;;;;;;;;;;;;;;;23.15;54.20;95672.03;1044050;28;1151;-70
2021/07/29 00:27:34;;;;;;;;;;;;;;;23.15;54.41;95669.38;1047145;28;1201;-70
2021/07/29 00:28:05;;;;;;;;;;;;;;;23.15;54.39;95666.72;1045303;28;1146;-70
2021/07/29 00:28:35;;;;;;;;;;;;;;;23.15;54.63;95667.53;1045146;28;1115;-71
2021/07/29 00:29:06;;;;;;;;;;;;;;;23.15;54.27;95666.72;1044974;28;1162;-70
2021/07/29 00:29:37;;;;;;;;;;;;;;;23.15;54.50;95667.53;1043437;28;1233;-70
2021/07/29 00:30:08;;;;;;;;;;;;;;;23.14;54.23;95665.94;1043557;28;2066;-70
2021/07/29 00:30:39;;;;;;;;;;;;;;;23.15;54.37;95664.88;1045262;28;1217;-70
2021/07/29 00:31:09;;;;;;;;;;;;;;;23.15;54.36;95659.59;1043902;28;1426;-70
2021/07/29 00:31:40;;;;;;;;;;;;;;;23.15;54.25;95662.22;1043430;28;1277;-69
2021/07/29 00:32:11;;;;;;;;;;;;;;;23.15;54.51;95662.22;1046196;28;1190;-70
2021/07/29 00:32:41;;;;;;;;;;;;;;;23.16;54.55;95663.03;1042401;28;1529;-70
2021/07/29 00:33:12;;;;;;;;;;;;;;;23.15;54.46;95666.72;1039073;28;1222;-71
2021/07/29 00:33:43;;;;;;;;;;;;;;;23.16;54.34;95668.31;1032246;28;1324;-70
2021/07/29 00:34:13;;;;;;;;;;;;;;;23.15;54.50;95664.09;1032758;28;1240;-69
2021/07/29 00:34:44;;;;;;;;;;;;;;;23.16;54.41;95663.78;1034085;28;1988;-69
2021/07/29 00:35:14;;;;;;;;;;;;;;;23.17;54.48;95661.94;1040025;28;1941;-69
2021/07/29 00:35:45;;;;;;;;;;;;;;;23.16;54.43;95663.78;1044611;28;1324;-69
2021/07/29 00:36:21;;;;;;;;;;;;;;;23.17;54.42;95661.94;1047354;28;1213;-70
2021/07/29 00:36:52;;;;;;;;;;;;;;;23.15;54.41;95658.78;1043233;28;2283;-71
2021/07/29 00:37:22;;;;;;;;;;;;;;;23.15;54.33;95664.09;1046577;28;1368;-69
2021/07/29 00:38:00;;;;;;;;;;;;;;;23.16;54.50;95673.59;1039710;28;1356;-69
2021/07/29 00:38:30;;;;;;;;;;;;;;;23.15;54.45;95662.22;1034517;28;1211;-70
2021/07/29 00:39:01;;;;;;;;;;;;;;;23.15;54.41;95662.22;1037222;28;1234;-70
2021/07/29 00:39:32;;;;;;;;;;;;;;;23.14;54.53;95660.66;1040119;28;1954;-70
2021/07/29 00:40:02;;;;;;;;;;;;;;;23.15;54.33;95656.16;1040774;28;2148;-69
2021/07/29 00:40:33;;;;;;;;;;;;;;;23.15;54.44;95666.72;1044912;28;1967;-70
2021/07/29 00:41:04;;;;;;;;;;;;;;;23.17;54.22;95664.56;1046751;28;1297;-70
2021/07/29 00:41:34;;;;;;;;;;;;;;;23.16;54.37;95661.16;1043158;28;1304;-70
2021/07/29 00:42:04;;;;;;;;;;;;;;;23.16;54.44;95658.50;1047586;28;1117;-70
2021/07/29 00:42:35;;;;;;;;;;;;;;;23.16;54.35;95652.44;1045796;28;977;-70
2021/07/29 00:43:07;;;;;;;;;;;;;;;23.16;54.13;95655.09;1043526;28;2175;-71
2021/07/29 00:43:37;;;;;;;;;;;;;;;23.15;54.17;95666.72;1044611;28;1254;-70
2021/07/29 00:44:07;;;;;;;;;;;;;;;23.15;54.35;95658.78;1039471;28;1351;-69
2021/07/29 00:44:38;;;;;;;;;;;;;;;23.15;54.46;95656.94;1030983;28;1216;-69
2021/07/29 00:45:08;;;;;;;;;;;;;;;23.16;54.39;95655.09;1035619;28;1768;-70
2021/07/29 00:45:39;;;;;;;;;;;;;;;23.15;54.20;95662.22;1032807;28;1230;-70
2021/07/29 00:46:09;;;;;;;;;;;;;;;23.16;54.20;95663.03;1036045;28;1297;-70
2021/07/29 00:46:40;;;;;;;;;;;;;;;23.15;54.58;95664.09;1041917;28;1214;-70
2021/07/29 00:47:11;;;;;;;;;;;;;;;23.15;54.37;95659.59;1040695;28;1365;-70
2021/07/29 00:47:41;;;;;;;;;;;;;;;23.16;54.49;95663.03;1044478;28;1641;-69
2021/07/29 00:48:13;;;;;;;;;;;;;;;23.16;54.45;95665.66;1045896;28;1206;-70
2021/07/29 00:48:43;;;;;;;;;;;;;;;23.15;54.17;95662.22;1043741;28;1155;-69
2021/07/29 00:49:14;;;;;;;;;;;;;;;23.16;54.33;95668.31;1042726;28;1239;-69
2021/07/29 00:49:44;;;;;;;;;;;;;;;23.15;54.45;95669.38;1037336;28;1230;-69
2021/07/29 00:50:15;;;;;;;;;;;;;;;23.14;54.36;95665.19;1032540;28;1880;-70
2021/07/29 00:50:46;;;;;;;;;;;;;;;23.15;54.30;95664.09;1035870;28;1297;-69
2021/07/29 00:51:16;;;;;;;;;;;;;;;23.15;54.46;95664.09;1040764;28;1225;-69
2021/07/29 00:51:47;;;;;;;;;;;;;;;23.14;54.55;95665.19;1039645;28;1300;-71
2021/07/29 00:52:20;;;;;;;;;;;;;;;23.14;54.46;95665.19;1036470;28;1225;-69
2021/07/29 00:52:51;;;;;;;;;;;;;;;23.14;54.43;95667.81;1036044;28;1418;-69
2021/07/29 00:53:21;;;;;;;;;;;;;;;23.13;54.52;95663.59;1034366;28;1171;-70
2021/07/29 00:53:52;;;;;;;;;;;;;;;23.14;54.53;95665.19;1032859;28;1284;-69
2021/07/29 00:54:27;;;;;;;;;;;;;;;23.14;54.43;95665.94;1029789;28;1293;-69
2021/07/29 00:54:58;;;;;;;;;;;;;;;23.14;54.55;95659.88;1037056;28;1133;-69
2021/07/29 00:55:28;;;;;;;;;;;;;;;23.14;54.45;95671.22;1031544;28;2075;-69
2021/07/29 00:55:59;;;;;;;;;;;;;;;23.14;54.17;95670.47;1036011;28;1227;-69
2021/07/29 00:56:29;;;;;;;;;;;;;;;23.15;54.44;95666.72;1030513;28;1689;-69
2021/07/29 00:56:59;;;;;;;;;;;;;;;23.13;54.40;95669.69;1032750;28;1259;-69
2021/07/29 00:57:30;;;;;;;;;;;;;;;23.14;54.24;95670.47;1033952;28;1206;-70
2021/07/29 00:58:01;;;;;;;;;;;;;;;23.14;54.29;95673.09;1034545;28;1229;-69
2021/07/29 00:58:31;;;;;;;;;;;;;;;23.15;54.43;95672.03;1037962;28;1112;-69
2021/07/29 00:59:01;;;;;;;;;;;;;;;23.14;54.30;95668.59;1043552;28;1190;-69
2021/07/29 00:59:32;;;;;;;;;;;;;;;23.14;54.23;95670.47;1042178;28;1529;-69
2021/07/29 01:00:03;;;;;;;;;;;;;;;23.14;54.50;95665.19;1043202;28;1883;-69
2021/07/29 01:00:34;;;;;;;;;;;;;;;23.14;54.43;95658.00;1040296;28;1952;-69
2021/07/29 01:01:04;;;;;;;;;;;;;;;23.15;54.53;95664.09;1040899;28;1210;-69
2021/07/29 01:01:35;;;;;;;;;;;;;;;23.15;54.51;95664.09;1042449;28;2256;-69
2021/07/29 01:02:05;;;;;;;;;;;;;;;23.15;54.24;95661.44;1043689;28;1108;-69
2021/07/29 01:02:35;;;;;;;;;;;;;;;23.14;54.36;95665.94;1045091;28;840;-70
2021/07/29 01:03:06;;;;;;;;;;;;;;;23.14;54.45;95663.28;1044256;28;1226;-69
2021/07/29 01:03:36;;;;;;;;;;;;;;;23.14;54.61;95663.28;1045556;28;1133;-70
2021/07/29 01:04:07;;;;;;;;;;;;;;;23.15;54.53;95661.44;1043004;28;2384;-70
2021/07/29 01:04:37;;;;;;;;;;;;;;;23.14;54.37;95657.25;1040684;28;2164;-69
2021/07/29 01:05:08;;;;;;;;;;;;;;;23.13;54.53;95660.94;1042540;28;1909;-70
2021/07/29 01:05:39;;;;;;;;;;;;;;;23.13;54.23;95659.09;1036537;28;1404;-70
2021/07/29 01:06:09;;;;;;;;;;;;;;;23.14;54.21;95657.25;1037492;28;1218;-71
2021/07/29 01:06:40;;;;;;;;;;;;;;;23.13;54.21;95653.03;1036822;28;789;-71
2021/07/29 01:07:10;;;;;;;;;;;;;;;23.13;54.37;95651.16;1040978;28;1167;-69
2021/07/29 01:07:41;;;;;;;;;;;;;;;23.14;54.45;95658.00;1040732;28;1163;-70
2021/07/29 01:08:11;;;;;;;;;;;;;;;23.13;54.43;95643.22;1039917;28;1223;-69
2021/07/29 01:08:57;;;;;;;;;;;;;;;23.13;54.47;95648.53;1045099;28;1214;-70
2021/07/29 01:09:28;;;;;;;;;;;;;;;23.14;54.16;95649.31;1044473;28;1191;-69
2021/07/29 01:09:58;;;;;;;;;;;;;;;23.13;54.47;95650.38;1040699;28;1259;-70
2021/07/29 01:10:36;;;;;;;;;;;;;;;23.13;54.31;95645.09;1043972;28;1400;-69
2021/07/29 01:11:07;;;;;;;;;;;;;;;23.12;54.52;95644.28;1040570;28;1535;-70
2021/07/29 01:11:38;;;;;;;;;;;;;;;23.13;54.43;95645.88;1037780;28;1591;-71
2021/07/29 01:12:09;;;;;;;;;;;;;;;23.11;54.60;95641.94;1036535;28;1460;-70
2021/07/29 01:12:40;;;;;;;;;;;;;;;23.13;54.54;95642.44;1033875;28;1361;-71
2021/07/29 01:13:10;;;;;;;;;;;;;;;23.12;54.41;95640.88;1032098;28;1661;-71
2021/07/29 01:13:41;;;;;;;;;;;;;;;23.12;54.52;95640.88;1032626;28;1172;-72
2021/07/29 01:14:12;;;;;;;;;;;;;;;23.12;54.45;95636.34;1040098;28;1208;-72
2021/07/29 01:14:46;;;;;;;;;;;;;;;23.12;54.37;95635.59;1045292;28;1246;-72
2021/07/29 01:15:18;;;;;;;;;;;;;;;23.11;54.50;95634.81;1045784;28;2156;-71
2021/07/29 01:15:49;;;;;;;;;;;;;;;23.11;54.64;95639.31;1044804;28;1216;-71
2021/07/29 01:16:20;;;;;;;;;;;;;;;23.11;54.41;95634.81;1044969;28;1361;-71
2021/07/29 01:16:55;;;;;;;;;;;;;;;23.10;54.68;95640.41;1036419;28;1538;-71
2021/07/29 01:17:26;;;;;;;;;;;;;;;23.11;54.49;95647.25;1036448;28;1207;-69
2021/07/29 01:17:58;;;;;;;;;;;;;;;23.11;54.44;95639.31;1034336;28;1516;-71
2021/07/29 01:18:29;;;;;;;;;;;;;;;23.11;54.46;95649.88;1037537;28;1191;-71
2021/07/29 01:19:00;;;;;;;;;;;;;;;23.11;54.44;95649.88;1036926;28;1157;-71
2021/07/29 01:19:33;;;;;;;;;;;;;;;23.11;54.33;95647.25;1033318;28;778;-71
2021/07/29 01:20:03;;;;;;;;;;;;;;;23.11;54.58;95652.53;1036638;28;1349;-71
2021/07/29 01:20:34;;;;;;;;;;;;;;;23.11;54.23;95650.66;1036160;28;2166;-71
2021/07/29 01:21:05;;;;;;;;;;;;;;;23.11;54.39;95649.88;1041709;28;1286;-71
2021/07/29 01:21:35;;;;;;;;;;;;;;;23.11;54.26;95655.16;1032700;28;1294;-71
2021/07/29 01:22:05;;;;;;;;;;;;;;;23.12;54.66;95654.09;1037609;28;1164;-71
2021/07/29 01:22:36;;;;;;;;;;;;;;;23.11;54.48;95650.66;1039830;28;1000;-70
2021/07/29 01:23:06;;;;;;;;;;;;;;;23.10;54.36;95658.91;1039335;28;1743;-70
2021/07/29 01:23:37;;;;;;;;;;;;;;;23.11;54.63;95655.97;1041795;28;1175;-70
2021/07/29 01:24:08;;;;;;;;;;;;;;;23.09;54.30;95658.13;1048032;28;1228;-70
2021/07/29 01:24:38;;;;;;;;;;;;;;;23.09;54.63;95657.31;1049053;28;882;-70
2021/07/29 01:25:10;;;;;;;;;;;;;;;23.10;54.45;95658.91;1048485;28;1159;-70
2021/07/29 01:25:40;;;;;;;;;;;;;;;23.09;54.72;95663.41;1044292;28;1501;-70
2021/07/29 01:26:11;;;;;;;;;;;;;;;23.10;54.59;95664.94;1048960;28;1115;-70
2021/07/29 01:26:42;;;;;;;;;;;;;;;23.09;54.48;95668.69;1049577;28;886;-68
2021/07/29 01:27:12;;;;;;;;;;;;;;;23.09;54.64;95655.47;1046336;28;1154;-71
2021/07/29 01:27:43;;;;;;;;;;;;;;;23.09;54.58;95655.47;1044744;28;970;-70
2021/07/29 01:28:13;;;;;;;;;;;;;;;23.10;54.57;95656.25;1048775;28;1163;-71
2021/07/29 01:28:44;;;;;;;;;;;;;;;23.10;54.54;95657.03;1046954;28;1225;-71
2021/07/29 01:29:14;;;;;;;;;;;;;;;23.11;54.54;95653.31;1044856;28;875;-70
2021/07/29 01:29:46;;;;;;;;;;;;;;;23.10;54.62;95657.03;1044634;28;1252;-70
2021/07/29 01:30:16;;;;;;;;;;;;;;;23.11;54.59;95655.16;1044082;28;2190;-71
2021/07/29 01:30:47;;;;;;;;;;;;;;;23.10;54.56;95649.09;1044438;28;997;-70
2021/07/29 01:31:17;;;;;;;;;;;;;;;23.10;54.56;95654.38;1045052;28;784;-71
2021/07/29 01:31:47;;;;;;;;;;;;;;;23.11;54.32;95655.97;1041285;28;1117;-71
2021/07/29 01:32:18;;;;;;;;;;;;;;;23.11;54.34;95649.88;1040114;28;1743;-71
2021/07/29 01:32:49;;;;;;;;;;;;;;;23.10;54.33;95649.09;1041347;28;1151;-71
2021/07/29 01:33:19;;;;;;;;;;;;;;;23.11;54.42;95649.88;1044914;28;803;-70
2021/07/29 01:33:50;;;;;;;;;;;;;;;23.10;54.74;95643.81;1046984;28;1319;-69
2021/07/29 01:34:21;;;;;;;;;;;;;;;23.10;54.51;95650.97;1048928;28;709;-71
2021/07/29 01:34:51;;;;;;;;;;;;;;;23.10;54.62;95650.97;1044449;28;2261;-71
2021/07/29 01:35:22;;;;;;;;;;;;;;;23.09;54.61;95642.25;1041856;28;2531;-71
2021/07/29 01:35:52;;;;;;;;;;;;;;;23.09;54.59;95646.75;1037906;28;1149;-70
2021/07/29 01:36:23;;;;;;;;;;;;;;;23.09;54.27;95644.09;1044641;28;820;-70
2021/07/29 01:36:53;;;;;;;;;;;;;;;23.09;54.47;95647.53;1044675;28;1170;-70
2021/07/29 01:37:27;;;;;;;;;;;;;;;23.09;54.39;95646.75;1045154;28;1270;-71
2021/07/29 01:37:57;;;;;;;;;;;;;;;23.10;54.59;95646.44;1045145;28;1139;-70
2021/07/29 01:38:28;;;;;;;;;;;;;;;23.10;54.46;95648.34;1044007;28;1186;-69
2021/07/29 01:38:58;;;;;;;;;;;;;;;23.10;54.46;95653.63;1044998;28;1178;-69
2021/07/29 01:39:29;;;;;;;;;;;;;;;23.09;54.42;95647.53;1044918;28;855;-69
2021/07/29 01:39:59;;;;;;;;;;;;;;;23.10;54.50;95649.09;1045495;28;1221;-69
2021/07/29 01:40:31;;;;;;;;;;;;;;;23.10;54.43;95653.63;1041857;28;2203;-69
2021/07/29 01:41:02;;;;;;;;;;;;;;;23.10;54.41;95648.34;1041207;28;1766;-69
2021/07/29 01:41:32;;;;;;;;;;;;;;;23.09;54.27;95649.38;1029194;28;1421;-69
2021/07/29 01:42:03;;;;;;;;;;;;;;;23.07;54.44;95649.69;1033058;28;1117;-69
2021/07/29 01:42:36;;;;;;;;;;;;;;;23.09;54.47;95657.31;1037107;28;848;-69
2021/07/29 01:43:09;;;;;;;;;;;;;;;23.08;54.57;95647.84;1044345;28;1168;-68
2021/07/29 01:43:40;;;;;;;;;;;;;;;23.08;54.53;95651.25;1046189;28;1224;-69
2021/07/29 01:44:10;;;;;;;;;;;;;;;23.08;54.47;95648.59;1048232;28;1394;-69
2021/07/29 01:44:41;;;;;;;;;;;;;;;23.08;54.19;95645.97;1048726;28;815;-69
2021/07/29 01:45:12;;;;;;;;;;;;;;;23.09;54.56;95646.75;1042818;28;1342;-70
2021/07/29 01:45:43;;;;;;;;;;;;;;;23.07;54.51;95640.97;1036974;28;2472;-69
2021/07/29 01:46:14;;;;;;;;;;;;;;;23.08;54.16;95645.19;1040689;28;1290;-70
2021/07/29 01:46:44;;;;;;;;;;;;;;;23.08;54.46;95645.97;1038032;28;1219;-69
2021/07/29 01:47:15;;;;;;;;;;;;;;;23.08;54.58;95651.25;1040547;28;1322;-70
2021/07/29 01:47:45;;;;;;;;;;;;;;;23.08;54.57;95643.31;1040864;28;1316;-69
2021/07/29 01:48:15;;;;;;;;;;;;;;;23.08;54.47;95650.47;1040400;28;1239;-70
2021/07/29 01:48:46;;;;;;;;;;;;;;;23.09;54.32;95646.75;1036539;28;1149;-69
2021/07/29 01:49:21;;;;;;;;;;;;;;;23.08;54.55;95645.19;1039794;28;1708;-69
2021/07/29 01:49:53;;;;;;;;;;;;;;;23.07;54.43;95647.03;1042234;28;1167;-69
2021/07/29 01:50:24;;;;;;;;;;;;;;;23.07;54.37;95646.25;1041821;28;2391;-69
2021/07/29 01:50:54;;;;;;;;;;;;;;;23.07;54.34;95643.59;1044088;28;1140;-69
2021/07/29 01:51:25;;;;;;;;;;;;;;;23.08;54.17;95651.25;1049603;28;1217;-69
2021/07/29 01:51:55;;;;;;;;;;;;;;;23.07;54.20;95648.91;1047164;28;1146;-69
2021/07/29 01:52:26;;;;;;;;;;;;;;;23.07;54.16;95643.59;1045837;28;1162;-69
2021/07/29 01:52:57;;;;;;;;;;;;;;;23.07;54.33;95654.97;1045823;28;1132;-69
2021/07/29 01:53:28;;;;;;;;;;;;;;;23.08;54.41;95647.84;1040376;28;1096;-70
2021/07/29 01:53:58;;;;;;;;;;;;;;;23.08;54.25;95651.25;1040912;28;1506;-70
2021/07/29 01:54:28;;;;;;;;;;;;;;;23.07;54.23;95649.69;1045509;28;745;-69
2021/07/29 01:55:00;;;;;;;;;;;;;;;23.08;54.34;95661.06;1045289;28;1167;-69
2021/07/29 01:55:30;;;;;;;;;;;;;;;23.08;54.31;95655.78;1044711;28;2140;-69
2021/07/29 01:56:00;;;;;;;;;;;;;;;23.06;54.49;95652.63;1045885;28;1076;-69
2021/07/29 01:56:31;;;;;;;;;;;;;;;23.06;54.54;95656.03;1045515;28;1258;-69
2021/07/29 01:57:04;;;;;;;;;;;;;;;23.06;54.42;95653.41;1045226;28;1107;-69
2021/07/29 01:57:36;;;;;;;;;;;;;;;23.07;54.21;95654.97;1041627;28;840;-69
2021/07/29 01:58:06;;;;;;;;;;;;;;;23.08;54.49;95653.88;1038368;28;1926;-69
2021/07/29 01:58:37;;;;;;;;;;;;;;;23.07;54.28;95654.97;1041554;28;757;-69
2021/07/29 01:59:07;;;;;;;;;;;;;;;23.08;54.36;95661.06;1043729;28;1152;-69
2021/07/29 01:59:38;;;;;;;;;;;;;;;23.07;54.46;95654.97;1043830;28;1242;-69
2021/07/29 02:00:08;;;;;;;;;;;;;;;23.08;54.47;95653.88;1048179;28;1242;-69
2021/07/29 02:00:40;;;;;;;;;;;;;;;23.08;54.43;95655.78;1045721;28;2147;-69
2021/07/29 02:01:10;;;;;;;;;;;;;;;23.08;54.30;95653.13;1047314;28;1342;-69
2021/07/29 02:01:41;;;;;;;;;;;;;;;23.07;54.21;95649.69;1045611;28;894;-69
2021/07/29 02:02:11;;;;;;;;;;;;;;;23.08;54.13;95650.47;1043792;28;2504;-69
2021/07/29 02:02:42;;;;;;;;;;;;;;;23.08;54.45;95650.47;1045659;28;1202;-69
2021/07/29 02:03:12;;;;;;;;;;;;;;;23.07;54.33;95654.19;1045692;28;1166;-69
2021/07/29 02:03:43;;;;;;;;;;;;;;;23.07;54.34;95648.91;1045944;28;1178;-69
2021/07/29 02:04:13;;;;;;;;;;;;;;;23.06;54.45;95648.09;1042808;28;2286;-71
2021/07/29 02:04:44;;;;;;;;;;;;;;;23.07;54.27;95652.34;1048674;28;1187;-69
2021/07/29 02:05:15;;;;;;;;;;;;;;;23.08;54.44;95651.25;1045026;28;2442;-69
2021/07/29 02:05:45;;;;;;;;;;;;;;;23.09;54.50;95655.47;1042757;28;2343;-69
2021/07/29 02:06:15;;;;;;;;;;;;;;;23.08;54.38;95647.84;1045507;28;1069;-69
2021/07/29 02:06:46;;;;;;;;;;;;;;;23.08;54.44;95653.13;1045737;28;1100;-69
2021/07/29 02:07:16;;;;;;;;;;;;;;;23.08;54.50;95648.59;1045428;28;864;-69
2021/07/29 02:07:47;;;;;;;;;;;;;;;23.08;54.42;95651.25;1042255;28;1222;-68
2021/07/29 02:08:17;;;;;;;;;;;;;;;23.08;54.30;95650.47;1049316;28;850;-69
2021/07/29 02:08:48;;;;;;;;;;;;;;;23.07;54.40;95652.34;1045117;28;1832;-69
2021/07/29 02:09:18;;;;;;;;;;;;;;;23.07;54.28;95651.53;1046385;28;1166;-69
2021/07/29 02:09:49;;;;;;;;;;;;;;;23.08;54.28;95653.13;1041865;28;1108;-69
2021/07/29 02:10:19;;;;;;;;;;;;;;;23.08;54.14;95651.25;1045620;28;752;-69
2021/07/29 02:10:49;;;;;;;;;;;;;;;23.07;54.41;95657.63;1040991;28;2394;-69
2021/07/29 02:11:20;;;;;;;;;;;;;;;23.08;54.16;95655.78;1045761;28;824;-70
2021/07/29 02:11:52;;;;;;;;;;;;;;;23.06;54.20;95648.09;1045806;28;1143;-69
2021/07/29 02:12:22;;;;;;;;;;;;;;;23.08;54.41;95658.41;1045665;28;1090;-70
2021/07/29 02:12:53;;;;;;;;;;;;;;;23.06;54.36;95653.41;1042953;28;1123;-69
2021/07/29 02:13:24;;;;;;;;;;;;;;;23.07;54.19;95648.91;1045442;28;923;-69
2021/07/29 02:13:54;;;;;;;;;;;;;;;23.07;54.46;95654.19;1045276;28;1288;-69
2021/07/29 02:14:25;;;;;;;;;;;;;;;23.07;54.19;95651.53;1044841;28;1227;-70
2021/07/29 02:14:56;;;;;;;;;;;;;;;23.07;54.02;95662.13;1044061;28;1111;-69
2021/07/29 02:15:27;;;;;;;;;;;;;;;23.07;54.20;95654.19;1044822;28;2072;-69
2021/07/29 02:15:57;;;;;;;;;;;;;;;23.07;54.27;95646.25;1045124;28;1782;-69
2021/07/29 02:16:28;;;;;;;;;;;;;;;23.07;54.13;95652.34;1045949;28;1043;-69
2021/07/29 02:16:58;;;;;;;;;;;;;;;23.08;54.23;95656.53;1044916;28;1637;-69
2021/07/29 02:17:28;;;;;;;;;;;;;;;23.08;54.12;95650.47;1043611;28;1776;-71
2021/07/29 02:17:59;;;;;;;;;;;;;;;23.08;54.44;95653.13;1043185;28;1224;-69
2021/07/29 02:18:29;;;;;;;;;;;;;;;23.09;54.32;95652.81;1041276;28;885;-69
2021/07/29 02:19:00;;;;;;;;;;;;;;;23.09;54.42;95657.31;1041124;28;1226;-69
2021/07/29 02:19:32;;;;;;;;;;;;;;;23.08;54.11;95651.25;1044995;28;831;-69
2021/07/29 02:20:02;;;;;;;;;;;;;;;23.08;54.42;95659.19;1049454;28;1245;-69
2021/07/29 02:20:32;;;;;;;;;;;;;;;23.08;54.33;95655.78;1046520;28;2104;-68
2021/07/29 02:21:07;;;;;;;;;;;;;;;23.08;54.38;95661.06;1044356;28;1131;-69
2021/07/29 02:21:37;;;;;;;;;;;;;;;23.07;54.17;95656.81;1046078;28;807;-69
2021/07/29 02:22:08;;;;;;;;;;;;;;;23.07;54.43;95654.19;1045261;28;1214;-69
2021/07/29 02:22:38;;;;;;;;;;;;;;;23.07;54.31;95657.63;1042169;28;2057;-69
2021/07/29 02:23:09;;;;;;;;;;;;;;;23.09;54.41;95659.97;1044277;28;1240;-75
2021/07/29 02:23:39;;;;;;;;;;;;;;;23.07;54.33;95657.63;1045802;28;1050;-69
2021/07/29 02:24:10;;;;;;;;;;;;;;;23.09;54.00;95663.41;1045733;28;1245;-69
2021/07/29 02:24:40;;;;;;;;;;;;;;;23.08;54.28;95661.81;1045764;28;713;-69
2021/07/29 02:25:12;;;;;;;;;;;;;;;23.08;54.38;95661.06;1045731;28;1186;-69
2021/07/29 02:25:43;;;;;;;;;;;;;;;23.09;54.33;95662.59;1043102;28;1982;-69
2021/07/29 02:26:13;;;;;;;;;;;;;;;23.08;54.16;95661.06;1049269;28;1231;-69
2021/07/29 02:26:44;;;;;;;;;;;;;;;23.09;54.11;95660.75;1049934;28;1021;-69
2021/07/29 02:27:14;;;;;;;;;;;;;;;23.09;54.35;95662.59;1043714;28;1104;-69
2021/07/29 02:27:44;;;;;;;;;;;;;;;23.09;54.25;95660.75;1045778;28;1175;-70
2021/07/29 02:28:14;;;;;;;;;;;;;;;23.09;54.55;95658.13;1049557;28;1057;-69
2021/07/29 02:28:45;;;;;;;;;;;;;;;23.09;54.42;95657.31;1047906;28;1213;-69
2021/07/29 02:29:15;;;;;;;;;;;;;;;23.08;54.13;95663.69;1045706;28;1090;-69
2021/07/29 02:29:45;;;;;;;;;;;;;;;23.09;54.13;95659.97;1045580;28;1135;-70
2021/07/29 02:30:15;;;;;;;;;;;;;;;23.09;54.35;95665.25;1045457;28;1137;-69
2021/07/29 02:30:46;;;;;;;;;;;;;;;23.09;54.09;95662.59;1044170;28;2106;-69
2021/07/29 02:31:16;;;;;;;;;;;;;;;23.09;54.37;95662.59;1045793;28;982;-69
2021/07/29 02:31:46;;;;;;;;;;;;;;;23.09;54.13;95666.03;1045456;28;1080;-69
2021/07/29 02:32:17;;;;;;;;;;;;;;;23.09;54.42;95667.91;1045074;28;1092;-69
2021/07/29 02:32:47;;;;;;;;;;;;;;;23.08;54.18;95666.34;1045317;28;1135;-69
2021/07/29 02:33:17;;;;;;;;;;;;;;;23.09;54.49;95657.31;1045174;28;1013;-69
2021/07/29 02:33:48;;;;;;;;;;;;;;;23.09;54.55;95658.13;1043606;28;1309;-69
2021/07/29 02:34:18;;;;;;;;;;;;;;;23.09;54.20;95662.59;1041675;28;1344;-69
2021/07/29 02:34:48;;;;;;;;;;;;;;;23.08;54.21;95661.06;1041880;28;1513;-69
2021/07/29 02:35:19;;;;;;;;;;;;;;;23.08;54.49;95667.09;1043860;28;2137;-69
2021/07/29 02:35:49;;;;;;;;;;;;;;;23.09;54.37;95659.97;1043567;28;2490;-69
2021/07/29 02:36:19;;;;;;;;;;;;;;;23.08;54.23;95664.47;1049915;28;1032;-69
2021/07/29 02:36:50;;;;;;;;;;;;;;;23.08;54.44;95664.47;1046436;28;2398;-69
2021/07/29 02:37:20;;;;;;;;;;;;;;;23.09;54.11;95662.59;1049891;28;779;-69
2021/07/29 02:37:50;;;;;;;;;;;;;;;23.08;54.36;95661.81;1048752;28;1170;-69
2021/07/29 02:38:21;;;;;;;;;;;;;;;23.08;54.38;95661.06;1044621;28;1138;-69
2021/07/29 02:38:51;;;;;;;;;;;;;;;23.08;54.07;95661.06;1045034;28;1175;-69
2021/07/29 02:39:21;;;;;;;;;;;;;;;23.08;54.33;95664.47;1045306;28;826;-69
2021/07/29 02:39:51;;;;;;;;;;;;;;;23.08;54.44;95661.81;1041028;28;1355;-70
2021/07/29 02:40:22;;;;;;;;;;;;;;;23.07;54.08;95664.75;1041273;28;1183;-69
2021/07/29 02:40:52;;;;;;;;;;;;;;;23.08;54.29;95666.34;1043109;28;2449;-69
2021/07/29 02:41:22;;;;;;;;;;;;;;;23.09;54.15;95668.69;1045375;28;808;-70
2021/07/29 02:41:53;;;;;;;;;;;;;;;23.08;54.02;95663.69;1045587;28;1145;-69
2021/07/29 02:42:23;;;;;;;;;;;;;;;23.08;54.21;95666.34;1045788;28;1067;-69
2021/07/29 02:42:53;;;;;;;;;;;;;;;23.09;54.22;95666.03;1045380;28;1095;-69
2021/07/29 02:43:24;;;;;;;;;;;;;;;23.08;54.27;95669.75;1045422;28;1212;-69
2021/07/29 02:43:54;;;;;;;;;;;;;;;23.07;54.46;95662.13;1045435;28;1240;-69
2021/07/29 02:44:24;;;;;;;;;;;;;;;23.08;54.47;95666.34;1045785;28;978;-70